sensor_id;sensor_type;location;lat;lon;timestamp;P1;durP1;ratioP1;P2;durP2;ratioP2
16892;SDS011;8563;52.242;9.098;2022-12-07T00:01:11;11.53;;;10.40;;
16892;SDS011;8563;52.242;9.098;2022-12-07T00:03:45;12.40;;;11.10;;
16892;SDS011;8563;52.242;9.098;2022-12-07T00:06:18;11.23;;;10.13;;
16892;SDS011;8563;52.242;9.098;2022-12-07T00:08:50;13.20;;;11.00;;
16892;SDS011;8563;52.242;9.098;2022-12-07T00:11:24;11.77;;;10.67;;
16892;SDS011;8563;52.242;9.098;2022-12-07T00:13:57;13.37;;;11.10;;
16892;SDS011;8563;52.242;9.098;2022-12-07T00:16:31;13.33;;;11.30;;
16892;SDS011;8563;52.242;9.098;2022-12-07T00:19:04;12.23;;;10.90;;
16892;SDS011;8563;52.242;9.098;2022-12-07T00:21:36;10.97;;;9.97;;
16892;SDS011;8563;52.242;9.098;2022-12-07T00:24:09;11.70;;;10.50;;
16892;SDS011;8563;52.242;9.098;2022-12-07T00:26:44;12.03;;;10.83;;
16892;SDS011;8563;52.242;9.098;2022-12-07T00:29:18;11.50;;;10.30;;
16892;SDS011;8563;52.242;9.098;2022-12-07T00:31:50;13.73;;;10.43;;
16892;SDS011;8563;52.242;9.098;2022-12-07T00:34:23;12.00;;;10.80;;
16892;SDS011;8563;52.242;9.098;2022-12-07T00:36:55;11.03;;;9.90;;
16892;SDS011;8563;52.242;9.098;2022-12-07T00:39:28;12.57;;;11.03;;
16892;SDS011;8563;52.242;9.098;2022-12-07T00:42:02;12.30;;;11.00;;
16892;SDS011;8563;52.242;9.098;2022-12-07T00:44:35;12.20;;;10.97;;
16892;SDS011;8563;52.242;9.098;2022-12-07T00:47:07;12.63;;;11.33;;
16892;SDS011;8563;52.242;9.098;2022-12-07T00:49:40;12.70;;;11.43;;
16892;SDS011;8563;52.242;9.098;2022-12-07T00:52:13;12.53;;;11.23;;
16892;SDS011;8563;52.242;9.098;2022-12-07T00:54:45;13.07;;;11.67;;
16892;SDS011;8563;52.242;9.098;2022-12-07T00:57:19;13.33;;;11.93;;
16892;SDS011;8563;52.242;9.098;2022-12-07T00:59:52;13.17;;;11.77;;
16892;SDS011;8563;52.242;9.098;2022-12-07T01:02:27;12.03;;;10.83;;
16892;SDS011;8563;52.242;9.098;2022-12-07T01:05:00;13.80;;;11.30;;
16892;SDS011;8563;52.242;9.098;2022-12-07T01:07:32;13.13;;;11.77;;
16892;SDS011;8563;52.242;9.098;2022-12-07T01:10:06;13.60;;;12.20;;
16892;SDS011;8563;52.242;9.098;2022-12-07T01:12:40;13.73;;;12.07;;
16892;SDS011;8563;52.242;9.098;2022-12-07T01:15:12;12.27;;;11.07;;
16892;SDS011;8563;52.242;9.098;2022-12-07T01:17:45;13.83;;;11.80;;
16892;SDS011;8563;52.242;9.098;2022-12-07T01:20:19;12.97;;;11.67;;
16892;SDS011;8563;52.242;9.098;2022-12-07T01:22:51;12.37;;;10.97;;
16892;SDS011;8563;52.242;9.098;2022-12-07T01:25:24;12.10;;;10.80;;
16892;SDS011;8563;52.242;9.098;2022-12-07T01:27:58;11.60;;;10.50;;
16892;SDS011;8563;52.242;9.098;2022-12-07T01:30:30;11.93;;;10.63;;
16892;SDS011;8563;52.242;9.098;2022-12-07T01:33:03;11.40;;;10.30;;
16892;SDS011;8563;52.242;9.098;2022-12-07T01:35:35;12.37;;;11.07;;
16892;SDS011;8563;52.242;9.098;2022-12-07T01:38:08;11.63;;;10.33;;
16892;SDS011;8563;52.242;9.098;2022-12-07T01:40:40;11.80;;;10.60;;
16892;SDS011;8563;52.242;9.098;2022-12-07T01:43:16;13.23;;;11.83;;
16892;SDS011;8563;52.242;9.098;2022-12-07T01:45:49;11.90;;;10.70;;
16892;SDS011;8563;52.242;9.098;2022-12-07T01:48:23;13.10;;;11.20;;
16892;SDS011;8563;52.242;9.098;2022-12-07T01:50:56;12.23;;;9.73;;
16892;SDS011;8563;52.242;9.098;2022-12-07T01:53:29;12.07;;;10.73;;
16892;SDS011;8563;52.242;9.098;2022-12-07T01:56:02;11.27;;;10.13;;
16892;SDS011;8563;52.242;9.098;2022-12-07T01:58:36;12.33;;;9.90;;
16892;SDS011;8563;52.242;9.098;2022-12-07T02:01:09;13.53;;;10.47;;
16892;SDS011;8563;52.242;9.098;2022-12-07T02:03:42;11.47;;;9.63;;
16892;SDS011;8563;52.242;9.098;2022-12-07T02:06:16;11.03;;;9.83;;
16892;SDS011;8563;52.242;9.098;2022-12-07T02:08:49;10.23;;;9.23;;
16892;SDS011;8563;52.242;9.098;2022-12-07T02:11:22;10.93;;;9.13;;
16892;SDS011;8563;52.242;9.098;2022-12-07T02:13:56;13.27;;;8.77;;
16892;SDS011;8563;52.242;9.098;2022-12-07T02:16:31;9.90;;;8.90;;
16892;SDS011;8563;52.242;9.098;2022-12-07T02:19:13;10.23;;;8.73;;
16892;SDS011;8563;52.242;9.098;2022-12-07T02:21:51;8.87;;;8.00;;
16892;SDS011;8563;52.242;9.098;2022-12-07T02:24:30;11.53;;;9.00;;
16892;SDS011;8563;52.242;9.098;2022-12-07T02:27:28;11.07;;;8.90;;
16892;SDS011;8563;52.242;9.098;2022-12-07T02:30:08;8.63;;;7.73;;
16892;SDS011;8563;52.242;9.098;2022-12-07T02:32:43;11.33;;;8.70;;
16892;SDS011;8563;52.242;9.098;2022-12-07T02:35:17;11.23;;;8.43;;
16892;SDS011;8563;52.242;9.098;2022-12-07T02:38:02;10.13;;;7.87;;
16892;SDS011;8563;52.242;9.098;2022-12-07T02:40:36;8.80;;;7.90;;
16892;SDS011;8563;52.242;9.098;2022-12-07T02:43:12;9.37;;;7.30;;
16892;SDS011;8563;52.242;9.098;2022-12-07T02:45:47;9.10;;;7.63;;
16892;SDS011;8563;52.242;9.098;2022-12-07T02:48:22;9.20;;;6.83;;
16892;SDS011;8563;52.242;9.098;2022-12-07T02:50:55;10.30;;;7.70;;
16892;SDS011;8563;52.242;9.098;2022-12-07T02:53:28;9.87;;;8.37;;
16892;SDS011;8563;52.242;9.098;2022-12-07T02:56:01;9.60;;;8.07;;
16892;SDS011;8563;52.242;9.098;2022-12-07T02:58:38;12.30;;;9.77;;
16892;SDS011;8563;52.242;9.098;2022-12-07T03:01:16;11.93;;;10.10;;
16892;SDS011;8563;52.242;9.098;2022-12-07T03:03:56;16.50;;;11.33;;
16892;SDS011;8563;52.242;9.098;2022-12-07T03:06:31;14.57;;;11.80;;
16892;SDS011;8563;52.242;9.098;2022-12-07T03:09:08;16.93;;;12.77;;
16892;SDS011;8563;52.242;9.098;2022-12-07T03:11:46;17.10;;;12.80;;
16892;SDS011;8563;52.242;9.098;2022-12-07T03:14:21;12.57;;;11.20;;
16892;SDS011;8563;52.242;9.098;2022-12-07T03:16:57;17.77;;;12.33;;
16892;SDS011;8563;52.242;9.098;2022-12-07T03:19:31;14.67;;;12.07;;
16892;SDS011;8563;52.242;9.098;2022-12-07T03:22:06;14.77;;;12.37;;
16892;SDS011;8563;52.242;9.098;2022-12-07T03:24:41;15.13;;;13.10;;
16892;SDS011;8563;52.242;9.098;2022-12-07T03:27:16;18.27;;;13.43;;
16892;SDS011;8563;52.242;9.098;2022-12-07T03:29:52;14.27;;;11.93;;
16892;SDS011;8563;52.242;9.098;2022-12-07T03:32:27;14.97;;;12.33;;
16892;SDS011;8563;52.242;9.098;2022-12-07T03:35:02;12.27;;;10.73;;
16892;SDS011;8563;52.242;9.098;2022-12-07T03:37:36;17.60;;;11.60;;
16892;SDS011;8563;52.242;9.098;2022-12-07T03:40:13;12.03;;;10.13;;
16892;SDS011;8563;52.242;9.098;2022-12-07T03:42:47;13.37;;;10.60;;
16892;SDS011;8563;52.242;9.098;2022-12-07T03:45:20;12.37;;;9.80;;
16892;SDS011;8563;52.242;9.098;2022-12-07T03:47:59;15.37;;;10.30;;
16892;SDS011;8563;52.242;9.098;2022-12-07T03:50:36;11.53;;;9.20;;
16892;SDS011;8563;52.242;9.098;2022-12-07T03:53:11;12.27;;;9.30;;
16892;SDS011;8563;52.242;9.098;2022-12-07T03:55:45;11.77;;;9.20;;
16892;SDS011;8563;52.242;9.098;2022-12-07T03:58:19;12.87;;;8.60;;
16892;SDS011;8563;52.242;9.098;2022-12-07T04:00:53;10.93;;;9.20;;
16892;SDS011;8563;52.242;9.098;2022-12-07T04:03:27;11.30;;;8.63;;
16892;SDS011;8563;52.242;9.098;2022-12-07T04:05:59;12.13;;;8.87;;
16892;SDS011;8563;52.242;9.098;2022-12-07T04:08:32;10.07;;;7.77;;
16892;SDS011;8563;52.242;9.098;2022-12-07T04:11:05;10.97;;;9.03;;
16892;SDS011;8563;52.242;9.098;2022-12-07T04:13:37;11.93;;;8.70;;
16892;SDS011;8563;52.242;9.098;2022-12-07T04:16:24;11.23;;;7.73;;
16892;SDS011;8563;52.242;9.098;2022-12-07T04:18:58;12.73;;;9.10;;
16892;SDS011;8563;52.242;9.098;2022-12-07T04:21:30;14.93;;;9.73;;
16892;SDS011;8563;52.242;9.098;2022-12-07T04:24:03;9.93;;;8.83;;
16892;SDS011;8563;52.242;9.098;2022-12-07T04:26:36;13.10;;;9.67;;
16892;SDS011;8563;52.242;9.098;2022-12-07T04:29:08;10.97;;;8.43;;
16892;SDS011;8563;52.242;9.098;2022-12-07T04:31:41;10.73;;;8.97;;
16892;SDS011;8563;52.242;9.098;2022-12-07T04:34:15;12.40;;;8.67;;
16892;SDS011;8563;52.242;9.098;2022-12-07T04:36:48;10.77;;;8.20;;
16892;SDS011;8563;52.242;9.098;2022-12-07T04:39:21;12.57;;;8.00;;
16892;SDS011;8563;52.242;9.098;2022-12-07T04:41:54;12.07;;;8.20;;
16892;SDS011;8563;52.242;9.098;2022-12-07T04:44:27;9.13;;;7.93;;
16892;SDS011;8563;52.242;9.098;2022-12-07T04:47:00;12.47;;;8.00;;
16892;SDS011;8563;52.242;9.098;2022-12-07T04:49:34;7.53;;;6.73;;
16892;SDS011;8563;52.242;9.098;2022-12-07T04:52:06;9.07;;;7.23;;
16892;SDS011;8563;52.242;9.098;2022-12-07T04:54:39;9.57;;;7.47;;
16892;SDS011;8563;52.242;9.098;2022-12-07T04:57:11;8.40;;;6.90;;
16892;SDS011;8563;52.242;9.098;2022-12-07T04:59:44;8.60;;;7.67;;
16892;SDS011;8563;52.242;9.098;2022-12-07T05:02:16;8.90;;;6.87;;
16892;SDS011;8563;52.242;9.098;2022-12-07T05:04:51;9.37;;;7.40;;
16892;SDS011;8563;52.242;9.098;2022-12-07T05:07:23;11.70;;;7.20;;
16892;SDS011;8563;52.242;9.098;2022-12-07T05:09:56;7.83;;;6.30;;
16892;SDS011;8563;52.242;9.098;2022-12-07T05:12:28;8.87;;;6.90;;
16892;SDS011;8563;52.242;9.098;2022-12-07T05:15:01;9.13;;;7.03;;
16892;SDS011;8563;52.242;9.098;2022-12-07T05:17:33;9.00;;;6.23;;
16892;SDS011;8563;52.242;9.098;2022-12-07T05:20:08;10.50;;;6.37;;
16892;SDS011;8563;52.242;9.098;2022-12-07T05:22:40;9.43;;;5.53;;
16892;SDS011;8563;52.242;9.098;2022-12-07T05:25:13;9.60;;;6.03;;
16892;SDS011;8563;52.242;9.098;2022-12-07T05:27:46;10.87;;;5.93;;
16892;SDS011;8563;52.242;9.098;2022-12-07T05:30:18;8.63;;;5.97;;
16892;SDS011;8563;52.242;9.098;2022-12-07T05:32:51;8.83;;;6.17;;
16892;SDS011;8563;52.242;9.098;2022-12-07T05:35:25;11.43;;;6.47;;
16892;SDS011;8563;52.242;9.098;2022-12-07T05:37:57;8.33;;;6.43;;
16892;SDS011;8563;52.242;9.098;2022-12-07T05:40:30;9.83;;;6.80;;
16892;SDS011;8563;52.242;9.098;2022-12-07T05:43:02;9.00;;;6.37;;
16892;SDS011;8563;52.242;9.098;2022-12-07T05:45:35;10.23;;;6.13;;
16892;SDS011;8563;52.242;9.098;2022-12-07T05:48:07;8.43;;;5.77;;
16892;SDS011;8563;52.242;9.098;2022-12-07T05:50:41;10.30;;;5.20;;
16892;SDS011;8563;52.242;9.098;2022-12-07T05:53:15;6.73;;;5.80;;
16892;SDS011;8563;52.242;9.098;2022-12-07T05:55:48;8.40;;;5.37;;
16892;SDS011;8563;52.242;9.098;2022-12-07T05:58:20;8.27;;;5.00;;
16892;SDS011;8563;52.242;9.098;2022-12-07T06:01:10;6.93;;;5.00;;
16892;SDS011;8563;52.242;9.098;2022-12-07T06:03:43;7.93;;;4.80;;
16892;SDS011;8563;52.242;9.098;2022-12-07T06:06:17;8.60;;;5.77;;
16892;SDS011;8563;52.242;9.098;2022-12-07T06:08:50;7.80;;;5.37;;
16892;SDS011;8563;52.242;9.098;2022-12-07T06:11:22;7.43;;;5.60;;
16892;SDS011;8563;52.242;9.098;2022-12-07T06:14:12;8.60;;;4.90;;
16892;SDS011;8563;52.242;9.098;2022-12-07T06:16:45;7.97;;;5.13;;
16892;SDS011;8563;52.242;9.098;2022-12-07T06:19:17;6.40;;;5.07;;
16892;SDS011;8563;52.242;9.098;2022-12-07T06:21:51;7.67;;;5.33;;
16892;SDS011;8563;52.242;9.098;2022-12-07T06:24:24;8.77;;;5.60;;
16892;SDS011;8563;52.242;9.098;2022-12-07T06:26:56;8.50;;;4.50;;
16892;SDS011;8563;52.242;9.098;2022-12-07T06:29:29;6.33;;;3.43;;
16892;SDS011;8563;52.242;9.098;2022-12-07T06:32:01;6.77;;;3.90;;
16892;SDS011;8563;52.242;9.098;2022-12-07T06:34:35;5.23;;;3.30;;
16892;SDS011;8563;52.242;9.098;2022-12-07T06:37:09;6.63;;;3.53;;
16892;SDS011;8563;52.242;9.098;2022-12-07T06:39:41;4.20;;;2.37;;
16892;SDS011;8563;52.242;9.098;2022-12-07T06:42:14;5.93;;;2.23;;
16892;SDS011;8563;52.242;9.098;2022-12-07T06:44:47;4.37;;;1.83;;
16892;SDS011;8563;52.242;9.098;2022-12-07T06:47:19;4.88;;;1.38;;
16892;SDS011;8563;52.242;9.098;2022-12-07T06:49:52;4.60;;;1.20;;
16892;SDS011;8563;52.242;9.098;2022-12-07T06:52:26;4.50;;;1.27;;
16892;SDS011;8563;52.242;9.098;2022-12-07T06:54:58;5.70;;;1.40;;
16892;SDS011;8563;52.242;9.098;2022-12-07T06:57:31;4.20;;;1.00;;
16892;SDS011;8563;52.242;9.098;2022-12-07T07:00:06;2.90;;;0.97;;
16892;SDS011;8563;52.242;9.098;2022-12-07T07:02:39;3.80;;;1.00;;
16892;SDS011;8563;52.242;9.098;2022-12-07T07:05:11;7.23;;;1.60;;
16892;SDS011;8563;52.242;9.098;2022-12-07T07:07:45;2.07;;;1.10;;
16892;SDS011;8563;52.242;9.098;2022-12-07T07:10:18;4.63;;;1.37;;
16892;SDS011;8563;52.242;9.098;2022-12-07T07:12:50;6.80;;;1.60;;
16892;SDS011;8563;52.242;9.098;2022-12-07T07:15:23;9.63;;;2.00;;
16892;SDS011;8563;52.242;9.098;2022-12-07T07:17:55;4.90;;;2.47;;
16892;SDS011;8563;52.242;9.098;2022-12-07T07:20:28;8.40;;;2.20;;
16892;SDS011;8563;52.242;9.098;2022-12-07T07:23:02;5.30;;;2.30;;
16892;SDS011;8563;52.242;9.098;2022-12-07T07:25:35;6.43;;;2.67;;
16892;SDS011;8563;52.242;9.098;2022-12-07T07:28:07;9.20;;;2.93;;
16892;SDS011;8563;52.242;9.098;2022-12-07T07:30:40;7.47;;;3.00;;
16892;SDS011;8563;52.242;9.098;2022-12-07T07:33:12;4.87;;;2.80;;
16892;SDS011;8563;52.242;9.098;2022-12-07T07:35:45;4.47;;;2.97;;
16892;SDS011;8563;52.242;9.098;2022-12-07T07:38:19;10.00;;;3.60;;
16892;SDS011;8563;52.242;9.098;2022-12-07T07:40:51;5.37;;;2.87;;
16892;SDS011;8563;52.242;9.098;2022-12-07T07:43:24;7.57;;;2.90;;
16892;SDS011;8563;52.242;9.098;2022-12-07T07:45:56;6.33;;;2.60;;
16892;SDS011;8563;52.242;9.098;2022-12-07T07:48:29;6.07;;;2.43;;
16892;SDS011;8563;52.242;9.098;2022-12-07T07:51:04;4.27;;;1.83;;
16892;SDS011;8563;52.242;9.098;2022-12-07T07:53:38;9.50;;;2.03;;
16892;SDS011;8563;52.242;9.098;2022-12-07T07:56:10;4.97;;;2.17;;
16892;SDS011;8563;52.242;9.098;2022-12-07T07:58:43;5.93;;;1.90;;
16892;SDS011;8563;52.242;9.098;2022-12-07T08:01:15;10.13;;;2.27;;
16892;SDS011;8563;52.242;9.098;2022-12-07T08:03:49;6.97;;;2.30;;
16892;SDS011;8563;52.242;9.098;2022-12-07T08:06:22;6.40;;;1.60;;
16892;SDS011;8563;52.242;9.098;2022-12-07T08:08:56;7.83;;;2.37;;
16892;SDS011;8563;52.242;9.098;2022-12-07T08:11:29;6.83;;;2.30;;
16892;SDS011;8563;52.242;9.098;2022-12-07T08:14:01;5.40;;;2.30;;
16892;SDS011;8563;52.242;9.098;2022-12-07T08:16:34;4.20;;;2.47;;
16892;SDS011;8563;52.242;9.098;2022-12-07T08:19:06;4.77;;;3.07;;
16892;SDS011;8563;52.242;9.098;2022-12-07T08:21:39;4.77;;;2.67;;
16892;SDS011;8563;52.242;9.098;2022-12-07T08:24:13;4.50;;;2.40;;
16892;SDS011;8563;52.242;9.098;2022-12-07T08:26:45;6.63;;;2.50;;
16892;SDS011;8563;52.242;9.098;2022-12-07T08:29:18;4.80;;;2.10;;
16892;SDS011;8563;52.242;9.098;2022-12-07T08:31:51;3.63;;;2.07;;
16892;SDS011;8563;52.242;9.098;2022-12-07T08:34:24;4.13;;;2.33;;
16892;SDS011;8563;52.242;9.098;2022-12-07T08:36:56;5.77;;;2.03;;
16892;SDS011;8563;52.242;9.098;2022-12-07T08:39:30;4.73;;;1.90;;
16892;SDS011;8563;52.242;9.098;2022-12-07T08:42:03;2.67;;;1.63;;
16892;SDS011;8563;52.242;9.098;2022-12-07T08:44:35;4.20;;;2.20;;
16892;SDS011;8563;52.242;9.098;2022-12-07T08:47:08;3.30;;;1.50;;
16892;SDS011;8563;52.242;9.098;2022-12-07T08:49:43;4.47;;;1.70;;
16892;SDS011;8563;52.242;9.098;2022-12-07T08:52:17;4.70;;;1.87;;
16892;SDS011;8563;52.242;9.098;2022-12-07T08:54:51;4.43;;;1.83;;
16892;SDS011;8563;52.242;9.098;2022-12-07T08:57:23;2.07;;;1.40;;
16892;SDS011;8563;52.242;9.098;2022-12-07T08:59:56;6.07;;;1.63;;
16892;SDS011;8563;52.242;9.098;2022-12-07T09:02:30;6.67;;;1.73;;
16892;SDS011;8563;52.242;9.098;2022-12-07T09:05:02;6.63;;;1.80;;
16892;SDS011;8563;52.242;9.098;2022-12-07T09:07:35;5.67;;;1.50;;
16892;SDS011;8563;52.242;9.098;2022-12-07T09:10:10;3.93;;;1.40;;
16892;SDS011;8563;52.242;9.098;2022-12-07T09:12:42;2.40;;;0.90;;
16892;SDS011;8563;52.242;9.098;2022-12-07T09:15:15;5.30;;;1.23;;
16892;SDS011;8563;52.242;9.098;2022-12-07T09:17:47;5.33;;;1.23;;
16892;SDS011;8563;52.242;9.098;2022-12-07T09:20:20;4.80;;;1.40;;
16892;SDS011;8563;52.242;9.098;2022-12-07T09:22:53;3.87;;;1.23;;
16892;SDS011;8563;52.242;9.098;2022-12-07T09:25:26;4.40;;;1.50;;
16892;SDS011;8563;52.242;9.098;2022-12-07T09:27:59;6.07;;;1.50;;
16892;SDS011;8563;52.242;9.098;2022-12-07T09:30:32;3.03;;;1.20;;
16892;SDS011;8563;52.242;9.098;2022-12-07T09:33:04;6.20;;;1.40;;
16892;SDS011;8563;52.242;9.098;2022-12-07T09:35:37;5.60;;;1.33;;
16892;SDS011;8563;52.242;9.098;2022-12-07T09:38:09;6.87;;;1.33;;
16892;SDS011;8563;52.242;9.098;2022-12-07T09:40:43;2.97;;;1.13;;
16892;SDS011;8563;52.242;9.098;2022-12-07T09:43:17;6.13;;;1.60;;
16892;SDS011;8563;52.242;9.098;2022-12-07T09:45:50;5.90;;;1.80;;
16892;SDS011;8563;52.242;9.098;2022-12-07T09:48:25;2.77;;;1.50;;
16892;SDS011;8563;52.242;9.098;2022-12-07T09:51:01;4.93;;;1.80;;
16892;SDS011;8563;52.242;9.098;2022-12-07T09:53:34;3.13;;;1.53;;
16892;SDS011;8563;52.242;9.098;2022-12-07T09:56:09;6.03;;;1.73;;
16892;SDS011;8563;52.242;9.098;2022-12-07T09:58:44;7.23;;;1.90;;
16892;SDS011;8563;52.242;9.098;2022-12-07T10:01:18;4.20;;;1.77;;
16892;SDS011;8563;52.242;9.098;2022-12-07T10:03:51;3.70;;;1.87;;
16892;SDS011;8563;52.242;9.098;2022-12-07T10:06:24;6.03;;;2.00;;
16892;SDS011;8563;52.242;9.098;2022-12-07T10:08:56;7.70;;;2.23;;
16892;SDS011;8563;52.242;9.098;2022-12-07T10:11:30;4.90;;;2.00;;
16892;SDS011;8563;52.242;9.098;2022-12-07T10:14:11;8.57;;;2.30;;
16892;SDS011;8563;52.242;9.098;2022-12-07T10:16:44;4.73;;;2.23;;
16892;SDS011;8563;52.242;9.098;2022-12-07T10:19:18;5.93;;;1.90;;
16892;SDS011;8563;52.242;9.098;2022-12-07T10:22:05;7.13;;;2.33;;
16892;SDS011;8563;52.242;9.098;2022-12-07T10:24:37;3.53;;;2.20;;
16892;SDS011;8563;52.242;9.098;2022-12-07T10:27:18;6.57;;;1.73;;
16892;SDS011;8563;52.242;9.098;2022-12-07T10:29:51;7.10;;;2.53;;
16892;SDS011;8563;52.242;9.098;2022-12-07T10:32:27;4.33;;;2.03;;
16892;SDS011;8563;52.242;9.098;2022-12-07T10:35:24;8.20;;;2.00;;
16892;SDS011;8563;52.242;9.098;2022-12-07T10:37:58;4.43;;;2.30;;
16892;SDS011;8563;52.242;9.098;2022-12-07T10:40:32;6.67;;;2.10;;
16892;SDS011;8563;52.242;9.098;2022-12-07T10:43:17;3.57;;;2.07;;
16892;SDS011;8563;52.242;9.098;2022-12-07T10:45:57;4.53;;;1.87;;
16892;SDS011;8563;52.242;9.098;2022-12-07T10:48:37;6.33;;;2.03;;
16892;SDS011;8563;52.242;9.098;2022-12-07T10:51:13;5.53;;;2.00;;
16892;SDS011;8563;52.242;9.098;2022-12-07T10:53:51;6.47;;;2.07;;
16892;SDS011;8563;52.242;9.098;2022-12-07T10:56:30;6.10;;;1.93;;
16892;SDS011;8563;52.242;9.098;2022-12-07T10:59:13;5.33;;;2.73;;
16892;SDS011;8563;52.242;9.098;2022-12-07T11:01:50;7.80;;;2.00;;
16892;SDS011;8563;52.242;9.098;2022-12-07T11:04:28;5.83;;;2.20;;
16892;SDS011;8563;52.242;9.098;2022-12-07T11:07:06;8.90;;;2.20;;
16892;SDS011;8563;52.242;9.098;2022-12-07T11:12:29;6.87;;;3.73;;
16892;SDS011;8563;52.242;9.098;2022-12-07T11:15:08;7.17;;;2.23;;
16892;SDS011;8563;52.242;9.098;2022-12-07T11:17:46;7.20;;;4.17;;
16892;SDS011;8563;52.242;9.098;2022-12-07T11:20:26;5.90;;;2.43;;
16892;SDS011;8563;52.242;9.098;2022-12-07T11:23:03;8.10;;;2.80;;
16892;SDS011;8563;52.242;9.098;2022-12-07T11:25:38;7.37;;;4.33;;
16892;SDS011;8563;52.242;9.098;2022-12-07T11:28:17;8.33;;;6.03;;
16892;SDS011;8563;52.242;9.098;2022-12-07T11:30:54;6.03;;;4.17;;
16892;SDS011;8563;52.242;9.098;2022-12-07T11:33:29;4.83;;;2.43;;
16892;SDS011;8563;52.242;9.098;2022-12-07T11:36:07;7.67;;;2.87;;
16892;SDS011;8563;52.242;9.098;2022-12-07T11:38:43;5.67;;;3.13;;
16892;SDS011;8563;52.242;9.098;2022-12-07T11:41:17;28.60;;;19.87;;
16892;SDS011;8563;52.242;9.098;2022-12-07T11:43:54;10.13;;;3.90;;
16892;SDS011;8563;52.242;9.098;2022-12-07T11:46:36;27.20;;;16.93;;
16892;SDS011;8563;52.242;9.098;2022-12-07T11:49:13;7.60;;;2.57;;
16892;SDS011;8563;52.242;9.098;2022-12-07T11:51:51;6.83;;;2.83;;
16892;SDS011;8563;52.242;9.098;2022-12-07T11:54:26;5.77;;;2.40;;
16892;SDS011;8563;52.242;9.098;2022-12-07T11:57:01;12.30;;;8.40;;
16892;SDS011;8563;52.242;9.098;2022-12-07T11:59:36;4.10;;;2.50;;
16892;SDS011;8563;52.242;9.098;2022-12-07T12:02:13;6.13;;;2.20;;
16892;SDS011;8563;52.242;9.098;2022-12-07T12:04:49;4.27;;;1.80;;
16892;SDS011;8563;52.242;9.098;2022-12-07T12:07:24;4.97;;;1.80;;
16892;SDS011;8563;52.242;9.098;2022-12-07T12:09:58;8.73;;;5.03;;
16892;SDS011;8563;52.242;9.098;2022-12-07T12:15:29;5.27;;;1.80;;
16892;SDS011;8563;52.242;9.098;2022-12-07T12:18:15;5.63;;;1.70;;
16892;SDS011;8563;52.242;9.098;2022-12-07T12:20:51;9.63;;;1.70;;
16892;SDS011;8563;52.242;9.098;2022-12-07T12:23:27;5.87;;;1.27;;
16892;SDS011;8563;52.242;9.098;2022-12-07T12:26:03;7.27;;;2.20;;
16892;SDS011;8563;52.242;9.098;2022-12-07T12:28:38;3.47;;;1.30;;
16892;SDS011;8563;52.242;9.098;2022-12-07T12:31:13;7.13;;;1.83;;
16892;SDS011;8563;52.242;9.098;2022-12-07T12:33:49;7.87;;;2.43;;
16892;SDS011;8563;52.242;9.098;2022-12-07T12:36:25;4.97;;;1.80;;
16892;SDS011;8563;52.242;9.098;2022-12-07T12:39:09;3.53;;;1.70;;
16892;SDS011;8563;52.242;9.098;2022-12-07T12:41:56;5.43;;;1.87;;
16892;SDS011;8563;52.242;9.098;2022-12-07T12:47:39;7.30;;;1.83;;
16892;SDS011;8563;52.242;9.098;2022-12-07T12:50:17;4.43;;;1.80;;
16892;SDS011;8563;52.242;9.098;2022-12-07T12:52:52;5.23;;;1.50;;
16892;SDS011;8563;52.242;9.098;2022-12-07T12:58:30;8.17;;;1.40;;
16892;SDS011;8563;52.242;9.098;2022-12-07T13:03:54;4.40;;;0.83;;
16892;SDS011;8563;52.242;9.098;2022-12-07T13:06:34;7.00;;;1.40;;
16892;SDS011;8563;52.242;9.098;2022-12-07T13:09:15;5.83;;;1.00;;
16892;SDS011;8563;52.242;9.098;2022-12-07T13:11:50;7.37;;;1.10;;
16892;SDS011;8563;52.242;9.098;2022-12-07T13:20:39;5.70;;;1.70;;
16892;SDS011;8563;52.242;9.098;2022-12-07T13:23:08;4.97;;;1.17;;
16892;SDS011;8563;52.242;9.098;2022-12-07T13:25:44;5.13;;;1.30;;
16892;SDS011;8563;52.242;9.098;2022-12-07T13:28:20;7.63;;;2.10;;
16892;SDS011;8563;52.242;9.098;2022-12-07T13:31:13;7.60;;;3.43;;
16892;SDS011;8563;52.242;9.098;2022-12-07T13:33:47;7.83;;;1.40;;
16892;SDS011;8563;52.242;9.098;2022-12-07T13:36:21;4.47;;;2.87;;
16892;SDS011;8563;52.242;9.098;2022-12-07T13:38:56;6.60;;;2.03;;
16892;SDS011;8563;52.242;9.098;2022-12-07T13:41:29;6.37;;;1.50;;
16892;SDS011;8563;52.242;9.098;2022-12-07T13:44:03;4.63;;;1.47;;
16892;SDS011;8563;52.242;9.098;2022-12-07T13:46:43;6.20;;;1.40;;
16892;SDS011;8563;52.242;9.098;2022-12-07T13:49:18;5.73;;;1.20;;
16892;SDS011;8563;52.242;9.098;2022-12-07T13:51:51;3.27;;;1.10;;
16892;SDS011;8563;52.242;9.098;2022-12-07T13:54:25;4.83;;;2.30;;
16892;SDS011;8563;52.242;9.098;2022-12-07T13:56:58;5.53;;;1.20;;
16892;SDS011;8563;52.242;9.098;2022-12-07T13:59:30;3.70;;;1.20;;
16892;SDS011;8563;52.242;9.098;2022-12-07T14:02:16;7.43;;;1.20;;
16892;SDS011;8563;52.242;9.098;2022-12-07T14:04:50;6.50;;;1.17;;
16892;SDS011;8563;52.242;9.098;2022-12-07T14:07:23;6.07;;;1.90;;
16892;SDS011;8563;52.242;9.098;2022-12-07T14:09:58;5.53;;;1.73;;
16892;SDS011;8563;52.242;9.098;2022-12-07T14:12:31;5.87;;;1.30;;
16892;SDS011;8563;52.242;9.098;2022-12-07T14:15:04;6.10;;;1.50;;
16892;SDS011;8563;52.242;9.098;2022-12-07T14:17:38;8.23;;;1.73;;
16892;SDS011;8563;52.242;9.098;2022-12-07T14:20:29;6.37;;;1.30;;
16892;SDS011;8563;52.242;9.098;2022-12-07T14:23:02;5.90;;;1.20;;
16892;SDS011;8563;52.242;9.098;2022-12-07T14:25:46;6.17;;;1.20;;
16892;SDS011;8563;52.242;9.098;2022-12-07T14:28:25;4.17;;;1.10;;
16892;SDS011;8563;52.242;9.098;2022-12-07T14:30:58;7.33;;;1.73;;
16892;SDS011;8563;52.242;9.098;2022-12-07T14:33:31;5.07;;;1.40;;
16892;SDS011;8563;52.242;9.098;2022-12-07T14:36:04;6.17;;;2.10;;
16892;SDS011;8563;52.242;9.098;2022-12-07T14:38:36;3.63;;;1.30;;
16892;SDS011;8563;52.242;9.098;2022-12-07T14:41:12;6.37;;;1.60;;
16892;SDS011;8563;52.242;9.098;2022-12-07T14:44:06;10.07;;;2.67;;
16892;SDS011;8563;52.242;9.098;2022-12-07T14:46:40;7.00;;;1.20;;
16892;SDS011;8563;52.242;9.098;2022-12-07T14:49:12;8.47;;;1.43;;
16892;SDS011;8563;52.242;9.098;2022-12-07T14:51:46;8.90;;;1.47;;
16892;SDS011;8563;52.242;9.098;2022-12-07T14:54:19;5.50;;;1.30;;
16892;SDS011;8563;52.242;9.098;2022-12-07T14:56:53;5.13;;;1.47;;
16892;SDS011;8563;52.242;9.098;2022-12-07T14:59:25;2.97;;;0.90;;
16892;SDS011;8563;52.242;9.098;2022-12-07T15:01:58;5.90;;;1.33;;
16892;SDS011;8563;52.242;9.098;2022-12-07T15:04:30;3.87;;;1.03;;
16892;SDS011;8563;52.242;9.098;2022-12-07T15:07:03;4.20;;;1.63;;
16892;SDS011;8563;52.242;9.098;2022-12-07T15:09:36;7.17;;;1.80;;
16892;SDS011;8563;52.242;9.098;2022-12-07T15:12:10;5.67;;;1.57;;
16892;SDS011;8563;52.242;9.098;2022-12-07T15:14:43;5.00;;;1.70;;
16892;SDS011;8563;52.242;9.098;2022-12-07T15:17:15;5.73;;;2.50;;
16892;SDS011;8563;52.242;9.098;2022-12-07T15:19:48;2.83;;;1.43;;
16892;SDS011;8563;52.242;9.098;2022-12-07T15:22:20;4.60;;;2.10;;
16892;SDS011;8563;52.242;9.098;2022-12-07T15:24:53;9.43;;;5.33;;
16892;SDS011;8563;52.242;9.098;2022-12-07T15:27:27;6.30;;;2.10;;
16892;SDS011;8563;52.242;9.098;2022-12-07T15:29:59;5.83;;;2.10;;
16892;SDS011;8563;52.242;9.098;2022-12-07T15:32:33;6.10;;;1.70;;
16892;SDS011;8563;52.242;9.098;2022-12-07T15:35:05;6.40;;;1.40;;
16892;SDS011;8563;52.242;9.098;2022-12-07T15:37:38;6.97;;;1.57;;
16892;SDS011;8563;52.242;9.098;2022-12-07T15:40:11;7.80;;;1.93;;
16892;SDS011;8563;52.242;9.098;2022-12-07T15:42:45;6.27;;;1.50;;
16892;SDS011;8563;52.242;9.098;2022-12-07T15:45:18;4.33;;;1.43;;
16892;SDS011;8563;52.242;9.098;2022-12-07T15:47:49;7.87;;;1.60;;
16892;SDS011;8563;52.242;9.098;2022-12-07T15:50:22;3.87;;;1.70;;
16892;SDS011;8563;52.242;9.098;2022-12-07T15:52:54;6.30;;;1.70;;
16892;SDS011;8563;52.242;9.098;2022-12-07T15:55:27;7.13;;;2.97;;
16892;SDS011;8563;52.242;9.098;2022-12-07T15:58:01;8.93;;;2.63;;
16892;SDS011;8563;52.242;9.098;2022-12-07T16:00:33;4.10;;;1.90;;